createdAt,value
2023-05-05T00:00:30.010Z,4.15
2023-05-05T00:01:11.782Z,3.88
2023-05-05T00:01:55.550Z,3.92
2023-05-05T00:02:37.313Z,3.92
2023-05-05T00:03:21.177Z,4.50
2023-05-05T00:04:03.101Z,3.78
2023-05-05T00:04:44.681Z,4.57
2023-05-05T00:05:26.279Z,4.30
2023-05-05T00:06:08.165Z,5.03
2023-05-05T00:06:50.599Z,4.80
2023-05-05T00:07:32.215Z,7.20
2023-05-05T00:08:13.869Z,4.25
2023-05-05T00:08:56.094Z,4.75
2023-05-05T00:09:37.705Z,4.72
2023-05-05T00:10:19.398Z,4.25
2023-05-05T00:11:01.301Z,4.40
2023-05-05T00:11:42.939Z,4.00
2023-05-05T00:12:24.498Z,4.43
2023-05-05T00:13:06.742Z,3.85
2023-05-05T00:13:48.431Z,4.22
2023-05-05T00:14:29.961Z,4.43
2023-05-05T00:15:11.607Z,4.55
2023-05-05T00:15:53.946Z,4.05
2023-05-05T00:16:35.612Z,4.70
2023-05-05T00:17:17.456Z,4.07
2023-05-05T00:17:59.211Z,4.15
2023-05-05T00:18:40.983Z,4.25
2023-05-05T00:19:22.575Z,3.90
2023-05-05T00:20:04.573Z,4.13
2023-05-05T00:20:47.227Z,4.25
2023-05-05T00:21:28.889Z,4.35
2023-05-05T00:22:10.921Z,4.32
2023-05-05T00:22:52.608Z,4.10
2023-05-05T00:23:34.250Z,3.83
2023-05-05T00:24:15.865Z,4.35
2023-05-05T00:24:57.502Z,4.72
2023-05-05T00:25:39.083Z,4.53
2023-05-05T00:26:21.263Z,4.78
2023-05-05T00:27:05.466Z,4.03
2023-05-05T00:27:47.029Z,4.25
2023-05-05T00:28:28.625Z,4.50
2023-05-05T00:29:10.295Z,4.82
2023-05-05T00:29:51.858Z,4.35
2023-05-05T00:30:34.291Z,5.40
2023-05-05T00:31:16.836Z,4.35
2023-05-05T00:31:58.485Z,4.20
2023-05-05T00:32:40.140Z,4.00
2023-05-05T00:33:21.949Z,4.40
2023-05-05T00:34:03.599Z,5.43
2023-05-05T00:34:45.180Z,4.82
2023-05-05T00:35:27.195Z,5.22
2023-05-05T00:36:09.269Z,4.38
2023-05-05T00:36:50.938Z,4.70
2023-05-05T00:37:32.633Z,4.68
2023-05-05T00:38:14.265Z,4.45
2023-05-05T00:38:56.430Z,4.50
2023-05-05T00:39:38.069Z,4.13
2023-05-05T00:40:19.992Z,4.25
2023-05-05T00:41:04.191Z,3.88
2023-05-05T00:41:46.081Z,4.40
2023-05-05T00:42:27.621Z,3.83
2023-05-05T00:43:09.291Z,4.25
2023-05-05T00:43:50.926Z,3.95
2023-05-05T00:44:41.396Z,4.30
2023-05-05T00:45:22.960Z,4.43
2023-05-05T00:46:14.712Z,3.85
2023-05-05T00:46:56.546Z,4.45
2023-05-05T00:47:39.459Z,4.78
2023-05-05T00:48:25.493Z,4.70
2023-05-05T00:49:07.512Z,4.80
2023-05-05T00:49:49.232Z,4.20
2023-05-05T00:50:31.144Z,4.93
2023-05-05T00:51:16.576Z,4.90
2023-05-05T00:51:58.807Z,4.82
2023-05-05T00:52:40.553Z,5.07
2023-05-05T00:53:23.128Z,4.78
2023-05-05T00:54:05.552Z,4.40
2023-05-05T00:54:47.185Z,4.97
2023-05-05T00:55:30.105Z,4.63
2023-05-05T00:56:21.919Z,3.85
2023-05-05T00:57:04.055Z,4.47
2023-05-05T00:57:46.175Z,4.20
2023-05-05T00:58:30.361Z,4.20
2023-05-05T00:59:11.934Z,4.13
2023-05-05T00:59:54.918Z,4.25
2023-05-05T01:00:37.002Z,3.97
2023-05-05T01:01:18.906Z,3.97
2023-05-05T01:02:01.170Z,4.18
2023-05-05T01:02:42.869Z,3.90
2023-05-05T01:03:24.838Z,3.85
2023-05-05T01:04:07.135Z,3.92
2023-05-05T01:04:48.855Z,4.20
2023-05-05T01:05:41.584Z,4.75
2023-05-05T01:06:52.206Z,4.40
2023-05-05T01:07:57.321Z,4.57
2023-05-05T01:08:56.971Z,4.38
2023-05-05T01:10:19.680Z,4.15
2023-05-05T01:11:19.574Z,4.10
2023-05-05T01:12:23.476Z,4.55
2023-05-05T01:13:10.766Z,4.88
2023-05-05T01:14:05.903Z,5.18
2023-05-05T01:14:59.430Z,4.90
2023-05-05T01:15:50.557Z,4.82
2023-05-05T01:16:34.855Z,4.45
2023-05-05T01:17:18.778Z,4.30
2023-05-05T01:18:28.410Z,4.95
2023-05-05T01:19:27.736Z,4.57
2023-05-05T01:20:11.771Z,4.07
2023-05-05T01:21:01.896Z,4.63
2023-05-05T01:21:48.266Z,4.30
2023-05-05T01:22:58.384Z,4.35
2023-05-05T01:23:42.912Z,4.13
2023-05-05T01:24:38.985Z,3.88
2023-05-05T01:25:38.723Z,3.83
2023-05-05T01:26:57.639Z,4.78
2023-05-05T01:27:50.504Z,4.40
2023-05-05T01:29:15.015Z,4.22
2023-05-05T01:30:34.151Z,4.28
2023-05-05T01:31:37.734Z,4.45
2023-05-05T01:32:25.714Z,4.07
2023-05-05T01:33:11.361Z,5.03
2023-05-05T01:33:59.877Z,5.53
2023-05-05T01:34:53.109Z,5.03
2023-05-05T01:35:56.677Z,5.35
2023-05-05T01:36:42.868Z,5.35
2023-05-05T01:37:38.113Z,4.30
2023-05-05T01:38:25.437Z,4.50
2023-05-05T01:39:09.349Z,4.93
2023-05-05T01:39:55.956Z,4.60
2023-05-05T01:40:43.654Z,4.47
2023-05-05T01:41:33.492Z,4.78
2023-05-05T01:42:18.601Z,4.88
2023-05-05T01:43:02.447Z,4.20
2023-05-05T01:43:47.765Z,4.63
2023-05-05T01:44:32.970Z,4.10
2023-05-05T01:45:16.426Z,4.15
2023-05-05T01:46:00.256Z,4.68
2023-05-05T01:46:42.100Z,4.45
2023-05-05T01:47:24.708Z,4.55
2023-05-05T01:48:08.895Z,4.18
2023-05-05T01:48:53.768Z,4.43
2023-05-05T01:49:37.172Z,4.35
2023-05-05T01:50:19.690Z,3.90
2023-05-05T01:51:03.235Z,6.22
2023-05-05T01:51:47.920Z,4.82
2023-05-05T01:52:29.893Z,4.13
2023-05-05T01:53:11.990Z,4.70
2023-05-05T01:53:57.575Z,4.82
2023-05-05T01:54:40.936Z,5.30
2023-05-05T01:55:26.147Z,5.45
2023-05-05T01:56:10.594Z,4.43
2023-05-05T01:56:54.189Z,4.60
2023-05-05T01:57:37.057Z,4.60
2023-05-05T01:58:21.506Z,5.35
2023-05-05T01:59:04.805Z,5.03
2023-05-05T01:59:46.984Z,5.18
2023-05-05T02:00:29.172Z,5.75
2023-05-05T02:01:12.649Z,4.90
2023-05-05T02:01:56.468Z,4.40
2023-05-05T02:02:39.953Z,4.63
2023-05-05T02:03:23.529Z,4.80
2023-05-05T02:04:09.625Z,5.15
2023-05-05T02:04:54.582Z,6.22
2023-05-05T02:05:39.755Z,4.10
2023-05-05T02:06:22.888Z,4.00
2023-05-05T02:07:06.127Z,4.90
2023-05-05T02:07:49.481Z,5.30
2023-05-05T02:08:32.693Z,4.75
2023-05-05T02:09:15.495Z,5.13
2023-05-05T02:09:58.157Z,4.68
2023-05-05T02:10:40.806Z,4.47
2023-05-05T02:11:23.277Z,4.38
2023-05-05T02:12:06.593Z,4.50
2023-05-05T02:12:49.259Z,4.78
2023-05-05T02:13:32.619Z,4.50
2023-05-05T02:14:16.759Z,5.07
2023-05-05T02:15:01.198Z,5.20
2023-05-05T02:15:44.213Z,5.05
2023-05-05T02:16:26.310Z,5.13
2023-05-05T02:17:08.964Z,4.93
2023-05-05T02:17:54.934Z,4.95
2023-05-05T02:18:38.824Z,4.53
2023-05-05T02:19:24.132Z,7.25
2023-05-05T02:20:07.252Z,4.57
2023-05-05T02:20:49.118Z,4.65
2023-05-05T02:21:31.875Z,5.18
2023-05-05T02:22:16.456Z,5.30
2023-05-05T02:22:58.788Z,4.78
2023-05-05T02:23:40.696Z,4.45
2023-05-05T02:24:22.543Z,4.22
2023-05-05T02:25:04.588Z,4.32
2023-05-05T02:25:50.988Z,3.90
2023-05-05T02:26:37.655Z,4.60
2023-05-05T02:27:22.941Z,5.30
2023-05-05T02:28:11.624Z,4.68
2023-05-05T02:29:05.500Z,5.10
2023-05-05T02:29:50.375Z,4.57
2023-05-05T02:30:35.468Z,4.50
2023-05-05T02:31:20.386Z,5.47
2023-05-05T02:32:14.700Z,4.50
2023-05-05T02:33:04.790Z,5.65
2023-05-05T02:33:48.809Z,4.75
2023-05-05T02:34:36.761Z,4.65
2023-05-05T02:35:23.049Z,4.65
2023-05-05T02:36:19.260Z,5.18
2023-05-05T02:37:15.703Z,4.72
2023-05-05T02:38:02.765Z,4.43
2023-05-05T02:38:54.544Z,4.55
2023-05-05T02:39:58.377Z,4.45
2023-05-05T02:40:43.443Z,4.63
2023-05-05T02:41:32.811Z,4.22
2023-05-05T02:42:21.784Z,5.25
2023-05-05T02:43:09.768Z,4.20
2023-05-05T02:43:54.280Z,4.95
2023-05-05T02:44:41.305Z,5.63
2023-05-05T02:45:25.644Z,4.28
2023-05-05T02:46:07.773Z,4.30
2023-05-05T02:46:51.088Z,3.58
2023-05-05T02:47:36.822Z,4.22
2023-05-05T02:48:18.541Z,4.55
2023-05-05T02:49:00.267Z,5.05
2023-05-05T02:49:42.827Z,4.78
2023-05-05T02:50:24.430Z,6.45
2023-05-05T02:51:13.575Z,5.25
2023-05-05T02:51:55.469Z,4.95
2023-05-05T02:52:41.316Z,5.47
2023-05-05T02:53:26.782Z,4.55
2023-05-05T02:54:08.518Z,4.93
2023-05-05T02:54:50.268Z,4.90
2023-05-05T02:55:45.238Z,4.72
2023-05-05T02:56:41.186Z,5.00
2023-05-05T02:57:31.541Z,4.78
2023-05-05T02:58:34.633Z,4.25
2023-05-05T02:59:41.679Z,4.72
2023-05-05T03:00:33.945Z,5.03
2023-05-05T03:01:39.442Z,4.22
2023-05-05T03:02:29.847Z,4.68
2023-05-05T03:03:25.138Z,4.22
2023-05-05T03:04:27.670Z,4.28
2023-05-05T03:05:19.552Z,4.35
2023-05-05T03:06:09.523Z,4.95
2023-05-05T03:06:56.446Z,6.97
2023-05-05T03:07:47.168Z,6.28
2023-05-05T03:08:49.212Z,5.75
2023-05-05T03:09:40.135Z,5.05
2023-05-05T03:10:34.987Z,5.30
2023-05-05T03:11:38.368Z,4.82
2023-05-05T03:12:30.374Z,5.18
2023-05-05T03:13:29.288Z,6.15
2023-05-05T03:14:13.177Z,5.20
2023-05-05T03:14:58.829Z,5.40
2023-05-05T03:15:46.692Z,5.35
2023-05-05T03:16:32.157Z,5.60
2023-05-05T03:17:17.321Z,5.55
2023-05-05T03:18:00.350Z,5.00
2023-05-05T03:18:45.445Z,6.53
2023-05-05T03:19:29.408Z,5.40
2023-05-05T03:20:15.759Z,5.70
2023-05-05T03:21:08.362Z,5.13
2023-05-05T03:21:52.410Z,5.72
2023-05-05T03:22:37.927Z,4.80
2023-05-05T03:23:22.801Z,5.30
2023-05-05T03:24:16.952Z,5.30
2023-05-05T03:25:03.993Z,5.22
2023-05-05T03:25:50.046Z,6.07
2023-05-05T03:26:41.828Z,5.60
2023-05-05T03:27:23.637Z,5.72
2023-05-05T03:28:06.057Z,5.30
2023-05-05T03:28:49.438Z,4.85
2023-05-05T03:29:39.213Z,5.28
2023-05-05T03:30:25.309Z,5.57
2023-05-05T03:31:07.050Z,5.13
2023-05-05T03:31:51.153Z,5.20
2023-05-05T03:32:33.230Z,4.70
2023-05-05T03:33:15.949Z,4.80
2023-05-05T03:33:57.832Z,4.43
2023-05-05T03:34:42.928Z,4.50
2023-05-05T03:35:24.778Z,5.25
2023-05-05T03:36:06.524Z,5.07
2023-05-05T03:36:48.380Z,5.15
2023-05-05T03:37:31.373Z,7.00
2023-05-05T03:38:13.418Z,6.65
2023-05-05T03:38:55.654Z,6.40
2023-05-05T03:39:37.733Z,6.28
2023-05-05T03:40:21.043Z,6.10
2023-05-05T03:41:06.987Z,5.32
2023-05-05T03:41:48.740Z,6.05
2023-05-05T03:42:31.629Z,8.90
2023-05-05T03:43:13.603Z,5.70
2023-05-05T03:43:55.217Z,5.32
2023-05-05T03:44:37.055Z,5.32
2023-05-05T03:45:18.776Z,5.20
2023-05-05T03:46:00.476Z,5.97
2023-05-05T03:46:43.132Z,6.05
2023-05-05T03:47:27.702Z,6.18
2023-05-05T03:48:10.853Z,5.10
2023-05-05T03:48:56.970Z,4.70
2023-05-05T03:49:39.591Z,5.38
2023-05-05T03:50:22.182Z,4.72
2023-05-05T03:51:04.019Z,5.05
2023-05-05T03:51:47.981Z,4.90
2023-05-05T03:52:29.824Z,4.70
2023-05-05T03:53:11.613Z,4.53
2023-05-05T03:53:53.846Z,4.93
2023-05-05T03:54:35.527Z,5.07
2023-05-05T03:55:17.213Z,5.28
2023-05-05T03:55:58.910Z,5.00
2023-05-05T03:56:40.704Z,5.00
2023-05-05T03:57:22.347Z,5.68
2023-05-05T03:58:04.000Z,5.10
2023-05-05T03:58:45.874Z,5.63
2023-05-05T03:59:28.159Z,4.47
2023-05-05T04:00:11.746Z,4.85
2023-05-05T04:00:56.639Z,4.65
2023-05-05T04:01:38.304Z,4.90
2023-05-05T04:02:20.454Z,4.68
2023-05-05T04:03:02.931Z,4.13
2023-05-05T04:03:45.052Z,4.25
2023-05-05T04:04:26.818Z,4.50
2023-05-05T04:05:09.132Z,5.75
2023-05-05T04:05:50.935Z,4.55
2023-05-05T04:06:32.707Z,4.43
2023-05-05T04:07:14.337Z,4.28
2023-05-05T04:07:57.831Z,4.70
2023-05-05T04:08:39.969Z,4.32
2023-05-05T04:09:21.545Z,4.55
2023-05-05T04:10:03.467Z,4.32
2023-05-05T04:10:45.692Z,4.75
2023-05-05T04:11:28.098Z,4.20
2023-05-05T04:12:13.636Z,5.53
2023-05-05T04:12:55.530Z,4.65
2023-05-05T04:13:37.267Z,4.57
2023-05-05T04:14:18.879Z,4.80
2023-05-05T04:15:00.577Z,5.13
2023-05-05T04:15:46.158Z,4.20
2023-05-05T04:16:28.105Z,4.75
2023-05-05T04:17:11.076Z,4.60
2023-05-05T04:17:53.062Z,4.57
2023-05-05T04:18:35.002Z,4.95
2023-05-05T04:19:17.519Z,4.85
2023-05-05T04:19:59.934Z,5.00
2023-05-05T04:20:41.845Z,4.47
2023-05-05T04:21:24.118Z,5.25
2023-05-05T04:22:05.862Z,4.65
2023-05-05T04:22:48.045Z,4.80
2023-05-05T04:23:30.415Z,5.03
2023-05-05T04:24:12.093Z,4.95
2023-05-05T04:24:54.286Z,5.07
2023-05-05T04:25:37.224Z,5.10
2023-05-05T04:26:19.098Z,4.90
2023-05-05T04:27:02.242Z,5.22
2023-05-05T04:27:44.457Z,5.88
2023-05-05T04:28:26.071Z,5.03
2023-05-05T04:29:09.388Z,5.28
2023-05-05T04:29:51.111Z,5.85
2023-05-05T04:30:32.708Z,5.93
2023-05-05T04:31:14.383Z,6.03
2023-05-05T04:31:57.789Z,6.30
2023-05-05T04:32:39.410Z,6.15
2023-05-05T04:33:21.188Z,6.20
2023-05-05T04:34:04.397Z,5.75
2023-05-05T04:34:46.737Z,5.88
2023-05-05T04:35:28.364Z,5.88
2023-05-05T04:36:10.005Z,5.75
2023-05-05T04:36:51.675Z,7.53
2023-05-05T04:37:34.436Z,6.57
2023-05-05T04:38:16.135Z,5.88
2023-05-05T04:38:58.038Z,5.82
2023-05-05T04:39:40.298Z,6.00
2023-05-05T04:40:22.014Z,6.10
2023-05-05T04:41:06.834Z,5.95
2023-05-05T04:41:49.704Z,6.18
2023-05-05T04:42:31.552Z,5.63
2023-05-05T04:43:13.133Z,5.15
2023-05-05T04:43:55.474Z,5.22
2023-05-05T04:44:37.150Z,5.68
2023-05-05T04:45:19.454Z,4.93
2023-05-05T04:46:02.097Z,5.65
2023-05-05T04:46:46.768Z,10.52
2023-05-05T04:47:29.214Z,6.88
2023-05-05T04:48:10.837Z,7.15
2023-05-05T04:48:52.731Z,6.20
2023-05-05T04:49:34.334Z,7.20
2023-05-05T04:50:16.501Z,6.20
2023-05-05T04:50:58.207Z,6.18
2023-05-05T04:51:42.911Z,6.30
2023-05-05T04:52:24.525Z,6.60
2023-05-05T04:53:06.992Z,6.43
2023-05-05T04:53:48.734Z,6.10
2023-05-05T04:54:30.378Z,7.63
2023-05-05T04:55:12.698Z,6.60
2023-05-05T04:55:54.321Z,6.00
2023-05-05T04:56:35.996Z,6.10
2023-05-05T04:57:18.154Z,6.65
2023-05-05T04:57:59.779Z,6.88
2023-05-05T04:58:41.419Z,6.22
2023-05-05T04:59:23.253Z,6.78
2023-05-05T05:00:06.516Z,6.47
2023-05-05T05:00:48.248Z,6.22
2023-05-05T05:01:29.859Z,6.13
2023-05-05T05:02:11.798Z,5.50
2023-05-05T05:02:53.605Z,5.10
2023-05-05T05:03:36.537Z,5.28
2023-05-05T05:04:18.774Z,5.60
2023-05-05T05:05:00.549Z,5.38
2023-05-05T05:05:42.217Z,5.40
2023-05-05T05:06:23.870Z,5.22
2023-05-05T05:07:05.462Z,4.70
2023-05-05T05:07:47.279Z,6.50
2023-05-05T05:08:28.930Z,5.15
2023-05-05T05:09:10.526Z,5.40
2023-05-05T05:09:52.150Z,5.35
2023-05-05T05:10:33.730Z,5.30
2023-05-05T05:11:15.414Z,5.13
2023-05-05T05:12:01.030Z,4.93
2023-05-05T05:12:42.679Z,4.97
2023-05-05T05:13:26.125Z,5.40
2023-05-05T05:14:07.801Z,5.45
2023-05-05T05:14:49.436Z,8.20
2023-05-05T05:15:31.163Z,6.05
2023-05-05T05:16:13.099Z,5.93
2023-05-05T05:16:55.071Z,5.70
2023-05-05T05:17:38.369Z,5.90
2023-05-05T05:18:20.011Z,5.50
2023-05-05T05:19:02.319Z,5.57
2023-05-05T05:19:45.737Z,6.93
2023-05-05T05:20:27.433Z,7.65
2023-05-05T05:21:10.250Z,7.50
2023-05-05T05:21:51.873Z,8.48
2023-05-05T05:22:34.875Z,7.93
2023-05-05T05:23:17.419Z,9.65
2023-05-05T05:23:59.742Z,8.48
2023-05-05T05:24:41.916Z,8.00
2023-05-05T05:25:24.631Z,9.02
2023-05-05T05:26:06.464Z,8.20
2023-05-05T05:26:48.645Z,7.30
2023-05-05T05:27:30.359Z,7.20
2023-05-05T05:28:11.959Z,7.25
2023-05-05T05:28:59.276Z,7.85
2023-05-05T05:29:40.916Z,7.65
2023-05-05T05:30:22.648Z,7.28
2023-05-05T05:31:04.814Z,7.80
2023-05-05T05:31:46.764Z,8.02
2023-05-05T05:32:29.580Z,7.68
2023-05-05T05:33:11.292Z,8.65
2023-05-05T05:33:54.021Z,7.20
2023-05-05T05:34:35.837Z,7.65
2023-05-05T05:35:18.523Z,8.55
2023-05-05T05:36:00.468Z,7.78
2023-05-05T05:36:42.444Z,7.95
2023-05-05T05:37:24.525Z,7.70
2023-05-05T05:38:06.278Z,7.70
2023-05-05T05:38:47.927Z,7.40
2023-05-05T05:39:30.165Z,6.95
2023-05-05T05:40:13.620Z,6.90
2023-05-05T05:40:55.332Z,7.20
2023-05-05T05:41:37.925Z,7.00
2023-05-05T05:42:19.604Z,7.05
2023-05-05T05:43:02.951Z,7.28
2023-05-05T05:43:44.696Z,8.50
2023-05-05T05:44:26.814Z,7.30
2023-05-05T05:45:09.064Z,6.60
2023-05-05T05:45:51.993Z,6.85
2023-05-05T05:46:34.066Z,6.30
2023-05-05T05:47:15.768Z,6.88
2023-05-05T05:47:58.639Z,6.97
2023-05-05T05:48:40.733Z,7.10
2023-05-05T05:49:22.870Z,7.15
2023-05-05T05:50:05.081Z,7.53
2023-05-05T05:50:46.932Z,7.75
2023-05-05T05:51:28.720Z,7.85
2023-05-05T05:52:10.371Z,7.82
2023-05-05T05:52:52.013Z,7.53
2023-05-05T05:53:34.128Z,7.55
2023-05-05T05:54:15.854Z,7.10
2023-05-05T05:54:57.673Z,8.35
2023-05-05T05:55:39.302Z,7.30
2023-05-05T05:56:21.488Z,7.18
2023-05-05T05:57:04.143Z,7.80
2023-05-05T05:57:45.816Z,7.00
2023-05-05T05:58:27.965Z,6.85
2023-05-05T05:59:10.140Z,7.30
2023-05-05T05:59:54.022Z,6.85
2023-05-05T06:00:36.297Z,6.55
2023-05-05T06:01:24.056Z,6.47
2023-05-05T06:02:05.757Z,6.60
2023-05-05T06:02:47.925Z,6.72
2023-05-05T06:03:33.191Z,6.93
2023-05-05T06:04:14.999Z,7.32
2023-05-05T06:04:56.641Z,7.18
2023-05-05T06:05:38.272Z,7.20
2023-05-05T06:06:19.953Z,8.27
2023-05-05T06:07:01.570Z,8.02
2023-05-05T06:07:43.194Z,7.47
2023-05-05T06:08:26.396Z,7.38
2023-05-05T06:09:09.483Z,6.80
2023-05-05T06:09:51.298Z,7.10
2023-05-05T06:10:33.239Z,6.88
2023-05-05T06:11:19.838Z,6.60
2023-05-05T06:12:03.715Z,7.15
2023-05-05T06:12:45.387Z,6.75
2023-05-05T06:13:27.245Z,7.38
2023-05-05T06:14:09.177Z,6.68
2023-05-05T06:14:50.837Z,7.28
2023-05-05T06:15:32.398Z,6.90
2023-05-05T06:16:15.798Z,7.03
2023-05-05T06:16:59.533Z,6.63
2023-05-05T06:17:43.221Z,6.85
2023-05-05T06:18:25.414Z,6.95
2023-05-05T06:19:09.539Z,6.75
2023-05-05T06:19:52.973Z,6.43
2023-05-05T06:20:36.100Z,7.22
2023-05-05T06:21:20.476Z,6.70
2023-05-05T06:22:04.836Z,6.80
2023-05-05T06:22:46.523Z,6.85
2023-05-05T06:23:28.180Z,6.72
2023-05-05T06:24:14.563Z,6.65
2023-05-05T06:24:56.208Z,7.07
2023-05-05T06:25:37.865Z,7.18
2023-05-05T06:26:19.838Z,6.43
2023-05-05T06:27:02.316Z,6.43
2023-05-05T06:27:43.932Z,7.47
2023-05-05T06:28:25.581Z,6.97
2023-05-05T06:29:07.203Z,6.80
2023-05-05T06:29:49.102Z,6.75
2023-05-05T06:30:30.853Z,6.55
2023-05-05T06:31:14.237Z,7.20
2023-05-05T06:31:55.951Z,8.07
2023-05-05T06:32:37.629Z,7.63
2023-05-05T06:33:22.350Z,7.45
2023-05-05T06:34:04.126Z,7.07
2023-05-05T06:34:47.329Z,7.50
2023-05-05T06:35:30.248Z,8.35
2023-05-05T06:36:11.919Z,6.93
2023-05-05T06:36:53.593Z,7.18
2023-05-05T06:37:35.386Z,7.22
2023-05-05T06:38:17.047Z,6.97
2023-05-05T06:38:58.766Z,7.13
2023-05-05T06:39:40.381Z,7.30
2023-05-05T06:40:22.094Z,6.75
2023-05-05T06:41:03.837Z,7.30
2023-05-05T06:41:45.415Z,6.95
2023-05-05T06:42:27.102Z,6.25
2023-05-05T06:43:08.888Z,6.70
2023-05-05T06:43:56.272Z,7.80
2023-05-05T06:44:37.939Z,6.47
2023-05-05T06:45:19.643Z,7.40
2023-05-05T06:46:01.300Z,7.38
2023-05-05T06:46:43.666Z,6.13
2023-05-05T06:47:25.984Z,6.55
2023-05-05T06:48:07.783Z,6.07
2023-05-05T06:48:49.493Z,6.28
2023-05-05T06:49:31.220Z,5.97
2023-05-05T06:50:13.077Z,5.88
2023-05-05T06:50:54.929Z,6.45
2023-05-05T06:51:36.497Z,6.22
2023-05-05T06:52:18.131Z,6.47
2023-05-05T06:52:59.891Z,6.43
2023-05-05T06:53:41.580Z,6.20
2023-05-05T06:54:23.220Z,5.88
2023-05-05T06:55:05.433Z,5.82
2023-05-05T06:55:47.861Z,5.55
2023-05-05T06:56:31.056Z,5.70
2023-05-05T06:57:12.740Z,6.93
2023-05-05T06:57:54.386Z,10.38
2023-05-05T06:58:35.977Z,6.00
2023-05-05T06:59:18.420Z,5.70
2023-05-05T07:00:00.342Z,6.97
2023-05-05T07:00:42.180Z,6.05
2023-05-05T07:01:23.942Z,6.55
2023-05-05T07:02:06.061Z,5.93
2023-05-05T07:02:47.804Z,6.25
2023-05-05T07:03:30.050Z,6.03
2023-05-05T07:04:12.231Z,6.80
2023-05-05T07:04:55.406Z,6.25
2023-05-05T07:05:37.493Z,5.85
2023-05-05T07:06:19.120Z,5.85
2023-05-05T07:07:00.743Z,5.40
2023-05-05T07:07:55.564Z,5.65
2023-05-05T07:08:37.726Z,6.28
2023-05-05T07:09:20.220Z,6.10
2023-05-05T07:10:01.962Z,6.22
2023-05-05T07:10:44.220Z,6.07
2023-05-05T07:11:25.938Z,5.80
2023-05-05T07:12:07.589Z,5.93
2023-05-05T07:12:49.957Z,6.25
2023-05-05T07:13:31.697Z,6.00
2023-05-05T07:14:13.313Z,6.25
2023-05-05T07:14:54.956Z,7.75
2023-05-05T07:15:36.672Z,5.70
2023-05-05T07:16:18.319Z,6.78
2023-05-05T07:16:59.921Z,6.18
2023-05-05T07:17:41.957Z,6.05
2023-05-05T07:18:23.628Z,6.20
2023-05-05T07:19:08.111Z,5.95
2023-05-05T07:19:51.168Z,6.32
2023-05-05T07:20:33.030Z,6.10
2023-05-05T07:21:14.687Z,5.72
2023-05-05T07:21:56.385Z,7.15
2023-05-05T07:22:37.967Z,6.18
2023-05-05T07:23:19.655Z,6.15
2023-05-05T07:24:03.084Z,5.15
2023-05-05T07:24:44.688Z,6.22
2023-05-05T07:25:26.734Z,5.95
2023-05-05T07:26:08.548Z,5.40
2023-05-05T07:26:50.219Z,6.00
2023-05-05T07:27:37.160Z,5.22
2023-05-05T07:28:18.781Z,5.53
2023-05-05T07:29:02.560Z,4.80
2023-05-05T07:29:44.206Z,5.50
2023-05-05T07:30:26.597Z,5.00
2023-05-05T07:31:08.412Z,5.50
2023-05-05T07:31:50.050Z,5.10
2023-05-05T07:32:31.667Z,5.40
2023-05-05T07:33:14.476Z,5.30
2023-05-05T07:33:56.083Z,4.78
2023-05-05T07:34:38.110Z,7.25
2023-05-05T07:35:19.902Z,5.85
2023-05-05T07:36:04.210Z,5.20
2023-05-05T07:36:45.807Z,5.38
2023-05-05T07:37:27.428Z,4.40
2023-05-05T07:38:10.784Z,5.47
2023-05-05T07:38:52.697Z,4.60
2023-05-05T07:39:34.341Z,5.95
2023-05-05T07:40:15.952Z,6.00
2023-05-05T07:40:57.686Z,5.50
2023-05-05T07:41:39.303Z,7.25
2023-05-05T07:42:22.328Z,5.47
2023-05-05T07:43:04.935Z,6.72
2023-05-05T07:43:46.624Z,4.65
2023-05-05T07:44:28.419Z,4.47
2023-05-05T07:45:11.353Z,5.13
2023-05-05T07:45:53.009Z,4.65
2023-05-05T07:46:34.698Z,5.03
2023-05-05T07:47:16.501Z,4.03
2023-05-05T07:47:58.137Z,4.40
2023-05-05T07:48:41.556Z,4.20
2023-05-05T07:49:23.571Z,5.78
2023-05-05T07:50:06.079Z,3.15
2023-05-05T07:50:47.963Z,3.33
2023-05-05T07:51:29.753Z,5.03
2023-05-05T07:52:11.409Z,3.47
2023-05-05T07:52:59.260Z,3.63
2023-05-05T07:53:52.170Z,2.60
2023-05-05T07:54:33.869Z,3.25
2023-05-05T07:55:15.759Z,2.70
2023-05-05T07:55:57.516Z,2.28
2023-05-05T07:56:39.176Z,2.40
2023-05-05T07:57:20.910Z,2.97
2023-05-05T07:58:05.562Z,2.95
2023-05-05T07:58:47.193Z,2.20
2023-05-05T07:59:28.900Z,2.88
2023-05-05T08:00:11.621Z,2.65
2023-05-05T08:00:56.058Z,2.60
2023-05-05T08:01:38.908Z,2.97
2023-05-05T08:02:21.950Z,4.40
2023-05-05T08:03:03.882Z,2.78
2023-05-05T08:03:45.965Z,2.30
2023-05-05T08:04:27.860Z,2.72
2023-05-05T08:05:09.910Z,2.10
2023-05-05T08:05:55.958Z,2.50
2023-05-05T08:06:37.659Z,2.72
2023-05-05T08:07:19.311Z,2.65
2023-05-05T08:08:00.916Z,2.38
2023-05-05T08:08:42.573Z,2.10
2023-05-05T08:09:24.111Z,2.25
2023-05-05T08:10:06.349Z,1.83
2023-05-05T08:10:48.293Z,2.40
2023-05-05T08:11:29.936Z,2.35
2023-05-05T08:12:12.293Z,3.30
2023-05-05T08:12:54.868Z,5.25
2023-05-05T08:13:36.663Z,2.65
2023-05-05T08:14:18.274Z,2.60
2023-05-05T08:14:59.965Z,2.65
2023-05-05T08:15:41.544Z,2.35
2023-05-05T08:16:23.130Z,2.60
2023-05-05T08:17:04.759Z,1.77
2023-05-05T08:17:48.603Z,3.38
2023-05-05T08:18:30.231Z,2.40
2023-05-05T08:19:25.035Z,2.00
2023-05-05T08:20:09.819Z,2.45
2023-05-05T08:20:52.788Z,2.60
2023-05-05T08:21:34.431Z,1.98
2023-05-05T08:22:16.158Z,2.45
2023-05-05T08:22:57.805Z,4.95
2023-05-05T08:23:39.727Z,2.13
2023-05-05T08:24:21.360Z,4.28
2023-05-05T08:25:03.073Z,2.78
2023-05-05T08:25:44.938Z,3.28
2023-05-05T08:26:26.569Z,2.55
2023-05-05T08:27:08.221Z,2.05
2023-05-05T08:27:49.804Z,3.22
2023-05-05T08:28:32.785Z,1.98
2023-05-05T08:29:14.394Z,2.42
2023-05-05T08:29:56.100Z,2.15
2023-05-05T08:30:37.718Z,3.35
2023-05-05T08:31:19.395Z,1.60
2023-05-05T08:32:02.140Z,1.52
2023-05-05T08:32:43.798Z,2.63
2023-05-05T08:33:25.463Z,1.63
2023-05-05T08:34:07.186Z,1.75
2023-05-05T08:34:48.740Z,1.60
2023-05-05T08:35:30.381Z,1.40
2023-05-05T08:36:13.540Z,2.10
2023-05-05T08:36:55.275Z,1.52
2023-05-05T08:37:36.970Z,1.25
2023-05-05T08:38:19.130Z,2.10
2023-05-05T08:39:00.843Z,3.55
2023-05-05T08:39:42.461Z,1.50
2023-05-05T08:40:31.833Z,2.22
2023-05-05T08:41:16.339Z,2.80
2023-05-05T08:41:57.944Z,2.17
2023-05-05T08:42:41.010Z,1.42
2023-05-05T08:43:24.225Z,2.20
2023-05-05T08:44:07.674Z,2.40
2023-05-05T08:44:49.256Z,2.00
2023-05-05T08:45:31.582Z,2.08
2023-05-05T08:46:13.988Z,2.00
2023-05-05T08:46:56.063Z,2.15
2023-05-05T08:47:38.982Z,1.90
2023-05-05T08:48:23.261Z,3.67
2023-05-05T08:49:13.612Z,4.65
2023-05-05T08:49:55.964Z,3.08
2023-05-05T08:50:39.864Z,2.53
2023-05-05T08:51:22.513Z,1.42
2023-05-05T08:52:09.084Z,2.03
2023-05-05T08:52:54.302Z,1.67
2023-05-05T08:53:45.034Z,1.48
2023-05-05T08:54:30.689Z,1.60
2023-05-05T08:55:34.520Z,1.90
2023-05-05T08:56:17.316Z,1.20
2023-05-05T08:57:01.926Z,1.55
2023-05-05T08:58:04.096Z,1.88
2023-05-05T08:58:47.159Z,2.60
2023-05-05T08:59:32.747Z,3.05
2023-05-05T09:00:15.197Z,2.42
2023-05-05T09:00:57.546Z,2.30
2023-05-05T09:01:41.842Z,3.60
2023-05-05T09:02:24.436Z,1.58
2023-05-05T09:03:07.421Z,1.35
2023-05-05T09:03:49.811Z,1.48
2023-05-05T09:04:31.653Z,1.52
2023-05-05T09:05:14.859Z,2.00
2023-05-05T09:05:56.970Z,1.83
2023-05-05T09:06:38.963Z,1.05
2023-05-05T09:07:21.062Z,1.30
2023-05-05T09:08:10.442Z,1.15
2023-05-05T09:08:53.325Z,1.95
2023-05-05T09:09:35.754Z,2.03
2023-05-05T09:10:17.807Z,1.98
2023-05-05T09:11:00.723Z,1.98
2023-05-05T09:11:43.502Z,1.38
2023-05-05T09:12:27.929Z,1.15
2023-05-05T09:13:09.734Z,1.73
2023-05-05T09:13:51.546Z,1.58
2023-05-05T09:14:33.255Z,2.45
2023-05-05T09:15:15.532Z,3.55
2023-05-05T09:15:58.035Z,2.03
2023-05-05T09:16:43.824Z,1.05
2023-05-05T09:17:26.216Z,1.13
2023-05-05T09:18:12.314Z,1.17
2023-05-05T09:19:04.729Z,1.08
2023-05-05T09:20:07.264Z,1.73
2023-05-05T09:20:49.227Z,2.17
2023-05-05T09:21:30.992Z,1.25
2023-05-05T09:22:12.555Z,1.52
2023-05-05T09:22:54.335Z,2.03
2023-05-05T09:23:36.050Z,1.17
2023-05-05T09:24:18.640Z,0.55
2023-05-05T09:25:00.284Z,0.40
2023-05-05T09:25:44.621Z,0.35
2023-05-05T09:26:26.318Z,0.68
2023-05-05T09:27:22.093Z,0.35
2023-05-05T09:28:11.983Z,0.82
2023-05-05T09:28:53.677Z,0.85
2023-05-05T09:29:35.454Z,1.98
2023-05-05T09:30:23.675Z,1.35
2023-05-05T09:31:13.645Z,0.82
2023-05-05T09:32:05.549Z,1.25
2023-05-05T09:32:50.569Z,1.23
2023-05-05T09:33:32.299Z,1.08
2023-05-05T09:34:17.134Z,0.75
2023-05-05T09:35:00.441Z,1.35
2023-05-05T09:35:53.041Z,1.23
2023-05-05T09:36:45.437Z,1.02
2023-05-05T09:37:31.063Z,1.55
2023-05-05T09:38:12.729Z,1.13
2023-05-05T09:39:04.665Z,1.20
2023-05-05T09:39:54.197Z,1.08
2023-05-05T09:40:46.772Z,0.95
2023-05-05T09:41:39.547Z,0.70
2023-05-05T09:42:21.196Z,2.17
2023-05-05T09:43:02.876Z,1.23
2023-05-05T09:43:51.755Z,1.00
2023-05-05T09:44:36.107Z,0.85
2023-05-05T09:45:17.947Z,1.58
2023-05-05T09:46:07.502Z,1.63
2023-05-05T09:46:51.497Z,1.45
2023-05-05T09:47:37.195Z,2.28